Time;durP1;ratioP1;P1;durP2;ratioP2;P2;SDS_P1;SDS_P2;PMS_P1;PMS_P2;Temp;Humidity;BMP_temperature;BMP_pressure;BME280_temperature;BME280_humidity;BME280_pressure;Samples;Min_cycle;Max_cycle;Signal;HPM_P1;HPM_P2
2021/01/03 00:01:58;;;;;;;10.57;5.80;;;;;;;7.27;59.87;99652.78;4367823;32;33692;-84
2021/01/03 00:04:28;;;;;;;12.13;5.93;;;;;;;7.34;59.81;99649.03;4370860;32;34795;-82
2021/01/03 00:06:56;;;;;;;9.60;6.65;;;;;;;7.37;59.97;99653.34;4357697;32;35365;-82
2021/01/03 00:09:24;;;;;;;11.60;7.50;;;;;;;7.44;59.48;99644.34;4369670;32;34498;-82
2021/01/03 00:11:52;;;;;;;10.85;6.55;;;;;;;7.23;60.16;99651.16;4369235;32;33671;-82
2021/01/03 00:14:19;;;;;;;10.50;6.15;;;;;;;7.65;58.55;99642.78;4370109;32;33586;-83
2021/01/03 00:16:51;;;;;;;12.43;6.03;;;;;;;7.42;58.92;99647.03;4356655;32;35713;-82
2021/01/03 00:19:20;;;;;;;14.90;7.00;;;;;;;7.52;58.69;99654.59;4354508;32;33806;-83
2021/01/03 00:21:51;;;;;;;11.60;6.10;;;;;;;6.81;60.88;99656.84;4368795;32;33616;-82
2021/01/03 00:24:20;;;;;;;9.45;6.03;;;;;;;6.41;61.88;99660.69;4370550;32;33537;-82
2021/01/03 00:26:47;;;;;;;8.88;5.85;;;;;;;6.90;60.59;99655.72;4372389;32;35884;-82
2021/01/03 00:29:18;;;;;;;11.25;6.53;;;;;;;6.74;60.32;99651.81;4369705;32;34005;-83
2021/01/03 00:31:47;;;;;;;8.85;6.22;;;;;;;6.95;59.82;99635.44;4365052;32;33285;-83
2021/01/03 00:34:16;;;;;;;9.98;5.78;;;;;;;7.01;59.89;99637.84;4367687;32;34862;-83
2021/01/03 00:36:43;;;;;;;10.35;5.87;;;;;;;6.71;60.70;99641.44;4374334;32;35027;-82
2021/01/03 00:39:11;;;;;;;12.10;6.15;;;;;;;7.19;59.10;99634.63;4362129;32;34147;-82
2021/01/03 00:41:39;;;;;;;8.88;5.37;;;;;;;6.64;60.80;99648.63;4355825;32;34631;-82
2021/01/03 00:44:06;;;;;;;10.27;6.57;;;;;;;6.95;59.81;99647.69;4368777;32;35110;-82
2021/01/03 00:46:34;;;;;;;10.65;5.90;;;;;;;6.84;60.02;99638.41;4353545;32;34265;-82
2021/01/03 00:49:01;;;;;;;22.02;6.68;;;;;;;6.90;59.88;99638.19;4356395;32;33247;-82
2021/01/03 00:51:29;;;;;;;8.57;6.30;;;;;;;7.04;59.47;99645.66;4370610;32;33575;-82
2021/01/03 00:53:57;;;;;;;12.20;6.20;;;;;;;7.33;58.70;99649.09;4369931;32;35741;-82
2021/01/03 00:56:25;;;;;;;9.35;5.75;;;;;;;7.17;59.07;99651.37;4366043;32;33877;-82
2021/01/03 00:58:53;;;;;;;9.82;5.82;;;;;;;7.36;58.10;99634.09;4356746;32;34075;-82
2021/01/03 01:01:21;;;;;;;14.57;6.18;;;;;;;6.83;59.67;99644.53;4371184;32;33202;-82
2021/01/03 01:03:50;;;;;;;11.23;6.50;;;;;;;6.76;59.82;99639.53;4367174;32;34713;-82
2021/01/03 01:06:17;;;;;;;10.75;5.80;;;;;;;6.70;60.13;99613.50;4371469;32;33576;-82
2021/01/03 01:08:46;;;;;;;9.50;6.18;;;;;;;6.91;59.13;99629.41;4358144;32;33317;-82
2021/01/03 01:11:13;;;;;;;12.45;7.07;;;;;;;6.90;58.97;99622.44;4370032;32;33701;-82
2021/01/03 01:13:41;;;;;;;14.98;6.03;;;;;;;6.88;59.40;99618.13;4354643;32;34845;-84
2021/01/03 01:16:09;;;;;;;12.35;6.30;;;;;;;6.25;61.08;99619.19;4371413;32;33290;-84
2021/01/03 01:18:36;;;;;;;10.55;5.40;;;;;;;6.62;60.22;99618.97;4367957;32;32675;-82
2021/01/03 01:21:05;;;;;;;9.23;5.68;;;;;;;6.74;59.51;99617.72;4373391;32;34299;-81
2021/01/03 01:23:33;;;;;;;8.80;5.85;;;;;;;6.78;59.31;99628.06;4365585;32;34631;-82
2021/01/03 01:26:00;;;;;;;12.60;7.18;;;;;;;6.53;60.52;99637.59;4367117;32;33466;-81
2021/01/03 01:28:28;;;;;;;11.80;6.30;;;;;;;6.65;59.71;99645.13;4378101;32;33322;-82
2021/01/03 01:30:56;;;;;;;8.30;5.00;;;;;;;6.86;59.08;99635.72;4372214;32;33141;-82
2021/01/03 01:33:24;;;;;;;10.02;5.55;;;;;;;7.02;58.36;99636.09;4371521;32;33784;-82
2021/01/03 01:35:51;;;;;;;11.10;6.82;;;;;;;6.53;nan;99640.22;4374256;32;34566;-82
2021/01/03 01:38:19;;;;;;;13.13;5.62;;;;;;;6.41;60.24;99650.19;4373607;32;33357;-82
2021/01/03 01:40:46;;;;;;;11.00;6.05;;;;;;;6.38;60.14;99655.50;4372038;32;34203;-82
2021/01/03 01:43:16;;;;;;;8.55;5.43;;;;;;;6.41;60.56;99670.31;4368710;32;33898;-82
2021/01/03 01:45:46;;;;;;;9.73;5.82;;;;;;;6.22;61.04;99680.47;4360978;32;33672;-84
2021/01/03 01:48:31;;;;;;;9.60;5.55;;;;;;;6.79;59.08;99660.41;4370053;32;32492;-83
2021/01/03 01:51:16;;;;;;;8.57;5.93;;;;;;;6.57;59.63;99640.09;4358133;32;33891;-83
2021/01/03 01:53:47;;;;;;;9.30;6.12;;;;;;;6.74;59.33;99615.09;4371479;32;33730;-83
2021/01/03 01:56:19;;;;;;;10.18;5.70;;;;;;;6.99;58.02;99604.69;4366649;32;35668;-83
2021/01/03 01:59:02;;;;;;;9.50;5.85;;;;;;;6.99;57.99;99597.69;4370332;32;33360;-82
2021/01/03 02:01:41;;;;;;;11.00;6.78;;;;;;;6.90;58.42;99593.56;4359825;32;32715;-82
2021/01/03 02:04:17;;;;;;;12.43;6.68;;;;;;;6.92;58.77;99593.53;4370262;32;33481;-83
2021/01/03 02:06:50;;;;;;;13.73;6.22;;;;;;;6.54;59.56;99599.97;4385920;32;34569;-82
2021/01/03 02:09:32;;;;;;;12.88;6.37;;;;;;;6.61;59.43;99599.75;4354323;32;34233;-82
2021/01/03 02:12:11;;;;;;;8.87;5.77;;;;;;;6.10;60.71;99618.72;4358458;32;33698;-82
2021/01/03 02:14:39;;;;;;;8.45;5.43;;;;;;;6.06;61.42;99626.72;4368062;32;36407;-82
2021/01/03 02:17:07;;;;;;;10.73;5.72;;;;;;;5.87;62.32;99616.72;4369923;32;34217;-81
2021/01/03 02:19:40;;;;;;;9.40;6.18;;;;;;;6.48;59.53;99597.53;4370706;32;33259;-82
2021/01/03 02:22:21;;;;;;;9.20;5.50;;;;;;;6.38;59.77;99603.06;4368235;32;34348;-81
2021/01/03 02:24:53;;;;;;;10.43;5.45;;;;;;;6.42;59.29;99598.59;4366299;32;33719;-82
2021/01/03 02:27:26;;;;;;;12.50;5.93;;;;;;;6.86;58.11;99585.84;4387659;32;33715;-82
2021/01/03 02:29:55;;;;;;;8.98;5.30;;;;;;;6.76;58.13;99580.03;4375009;32;32596;-82
2021/01/03 02:32:25;;;;;;;10.52;5.87;;;;;;;6.28;59.64;99590.28;4369819;32;34398;-82
2021/01/03 02:34:52;;;;;;;10.02;5.57;;;;;;;6.58;58.74;99598.97;4353059;32;34275;-82
2021/01/03 02:37:31;;;;;;;9.18;5.45;;;;;;;6.91;57.74;99594.44;4370711;32;35337;-82
2021/01/03 02:40:12;;;;;;;13.10;5.35;;;;;;;7.08;57.18;99581.63;4375848;32;32824;-82
2021/01/03 02:42:41;;;;;;;8.43;5.30;;;;;;;6.59;58.61;99569.19;4368188;32;34539;-82
2021/01/03 02:45:30;;;;;;;6.93;5.03;;;;;;;6.28;59.18;99559.66;4370049;32;34545;-82
2021/01/03 02:48:03;;;;;;;9.25;5.12;;;;;;;6.57;58.81;99553.53;4365961;32;33915;-83
2021/01/03 02:50:31;;;;;;;11.32;6.32;;;;;;;6.31;59.61;99553.44;4369456;32;33457;-82
2021/01/03 02:52:58;;;;;;;13.30;5.45;;;;;;;6.76;58.20;99548.56;4355699;32;34615;-81
2021/01/03 02:55:26;;;;;;;7.30;5.43;;;;;;;6.32;59.56;99539.47;4361767;32;33738;-83
2021/01/03 02:57:54;;;;;;;11.05;5.30;;;;;;;6.07;60.16;99537.53;4379050;32;33635;-82
2021/01/03 03:00:26;;;;;;;10.27;4.75;;;;;;;5.82;60.93;99524.28;4375074;32;33143;-83
2021/01/03 03:02:54;;;;;;;7.82;5.22;;;;;;;6.05;60.20;99494.81;4366069;32;32538;-82
2021/01/03 03:05:22;;;;;;;8.20;4.70;;;;;;;5.73;61.38;99503.56;4342444;32;34198;-83
2021/01/03 03:07:50;;;;;;;12.37;5.80;;;;;;;5.86;61.13;99515.44;4378350;32;34590;-83
2021/01/03 03:10:19;;;;;;;6.70;4.62;;;;;;;5.74;61.64;99521.00;4372456;32;32849;-83
2021/01/03 03:12:48;;;;;;;8.75;5.05;;;;;;;5.65;62.12;99534.41;4356545;32;34339;-83
2021/01/03 03:15:15;;;;;;;6.97;4.82;;;;;;;6.00;60.83;99517.69;4370120;32;34400;-83
2021/01/03 03:17:43;;;;;;;6.85;5.12;;;;;;;5.84;61.45;99532.97;4358757;32;33498;-83
2021/01/03 03:20:11;;;;;;;9.43;5.60;;;;;;;6.20;60.29;99534.56;4370125;32;34157;-84
2021/01/03 03:22:39;;;;;;;11.63;5.32;;;;;;;6.42;59.27;99546.13;4369242;32;33011;-83
2021/01/03 03:25:09;;;;;;;8.73;5.10;;;;;;;6.50;59.15;99551.13;4372477;32;34646;-83
2021/01/03 03:27:36;;;;;;;8.70;4.93;;;;;;;6.71;58.29;99553.09;4369129;32;33684;-82
2021/01/03 03:30:05;;;;;;;8.32;5.32;;;;;;;6.39;59.59;99562.81;4366532;32;32989;-82
2021/01/03 03:32:33;;;;;;;13.85;6.10;;;;;;;6.56;59.28;99566.69;4359095;32;33334;-82
2021/01/03 03:35:00;;;;;;;11.55;5.35;;;;;;;6.51;59.81;99556.34;4361327;32;34595;-82
2021/01/03 03:37:28;;;;;;;7.65;5.28;;;;;;;6.76;58.37;99553.78;4372617;32;34839;-82
2021/01/03 03:39:55;;;;;;;8.50;4.50;;;;;;;6.71;58.22;99555.72;4357562;32;34295;-82
2021/01/03 03:42:22;;;;;;;9.38;5.00;;;;;;;6.96;57.61;99554.91;4373172;32;33604;-83
2021/01/03 03:44:49;;;;;;;7.35;5.25;;;;;;;6.79;57.88;99556.34;4374135;32;33854;-83
2021/01/03 03:47:17;;;;;;;10.80;6.20;;;;;;;6.76;57.84;99545.94;4373023;32;32248;-83
2021/01/03 03:49:44;;;;;;;9.95;4.90;;;;;;;6.59;58.86;99535.09;4357981;32;33660;-83
2021/01/03 03:52:11;;;;;;;8.00;5.40;;;;;;;6.54;59.01;99518.66;4358292;32;34924;-83
2021/01/03 03:54:42;;;;;;;8.63;5.10;;;;;;;6.51;59.62;99519.63;4370787;32;34513;-83
2021/01/03 03:57:10;;;;;;;9.80;5.72;;;;;;;6.10;60.50;99526.97;4373385;32;33651;-82
2021/01/03 03:59:38;;;;;;;9.38;5.25;;;;;;;6.20;60.55;99530.19;4366232;32;33146;-82
2021/01/03 04:02:05;;;;;;;9.23;4.90;;;;;;;6.34;60.10;99522.75;4357321;32;34162;-82
2021/01/03 04:04:33;;;;;;;8.32;5.15;;;;;;;6.26;60.40;99530.00;4370611;32;32800;-83
2021/01/03 04:07:00;;;;;;;9.20;5.20;;;;;;;6.33;60.03;99536.78;4370531;32;33610;-82
2021/01/03 04:09:27;;;;;;;7.78;5.20;;;;;;;6.13;60.77;99526.06;4370231;32;33267;-82
2021/01/03 04:11:55;;;;;;;8.02;5.20;;;;;;;6.46;59.74;99525.88;4376735;32;33283;-82
2021/01/03 04:14:24;;;;;;;9.73;5.30;;;;;;;6.31;60.31;99522.84;4360090;32;34691;-82
2021/01/03 04:16:52;;;;;;;9.38;5.20;;;;;;;6.16;61.18;99515.44;4368338;32;32689;-82
2021/01/03 04:19:21;;;;;;;7.22;4.72;;;;;;;6.03;61.47;99511.47;4381216;32;33177;-82
2021/01/03 04:21:55;;;;;;;12.77;7.05;;;;;;;6.20;60.91;99506.59;4356256;32;35522;-82
2021/01/03 04:24:24;;;;;;;10.52;5.45;;;;;;;6.31;61.06;99512.34;4366601;32;35456;-82
2021/01/03 04:26:57;;;;;;;11.82;5.75;;;;;;;6.43;60.64;99500.63;4376272;32;33752;-82
2021/01/03 04:29:24;;;;;;;9.73;5.35;;;;;;;6.57;59.72;99497.56;4361704;32;34303;-82
2021/01/03 04:32:03;;;;;;;8.52;4.95;;;;;;;6.62;59.75;99498.28;4375877;32;34794;-82
2021/01/03 04:34:31;;;;;;;8.55;5.05;;;;;;;6.48;60.02;99496.09;4372738;32;34595;-82
2021/01/03 04:36:59;;;;;;;9.43;5.60;;;;;;;6.32;61.01;99490.50;4369529;32;34649;-82
2021/01/03 04:39:28;;;;;;;12.60;6.55;;;;;;;6.26;61.17;99492.44;4370083;32;34018;-83
2021/01/03 04:41:59;;;;;;;11.60;6.03;;;;;;;6.58;60.57;99501.91;4370366;32;34504;-83
2021/01/03 04:44:42;;;;;;;8.07;5.20;;;;;;;6.77;59.53;99499.53;4378849;32;34994;-83
2021/01/03 04:47:13;;;;;;;10.18;5.18;;;;;;;6.60;59.83;99493.09;4375818;32;34470;-83
2021/01/03 04:49:45;;;;;;;8.23;5.40;;;;;;;6.51;60.47;99500.41;4389281;32;33114;-83
2021/01/03 04:52:32;;;;;;;;;;;;;;;6.96;59.13;99510.28;4367676;32;34425;-83
2021/01/03 04:55:50;;;;;;;9.52;5.30;;;;;;;6.52;61.27;99508.22;4388516;32;34055;-83
2021/01/03 04:58:31;;;;;;;8.52;5.35;;;;;;;6.71;60.61;99508.47;4376843;32;33737;-83
2021/01/03 05:01:29;;;;;;;8.80;5.32;;;;;;;6.51;60.68;99514.38;4367962;32;34681;-83
2021/01/03 05:04:06;;;;;;;9.18;5.43;;;;;;;5.80;63.62;99526.09;4384153;32;34278;-82
2021/01/03 05:06:34;;;;;;;12.40;5.97;;;;;;;6.35;61.99;99519.22;4374483;32;34012;-82
2021/01/03 05:09:05;;;;;;;8.77;5.45;;;;;;;6.08;62.55;99525.31;4369531;32;33575;-83
2021/01/03 05:12:00;;;;;;;8.32;5.43;;;;;;;6.02;62.62;99528.09;4356772;32;33845;-82
2021/01/03 05:14:53;;;;;;;8.40;5.30;;;;;;;6.32;62.04;99518.47;4379365;32;33409;-81
2021/01/03 05:17:21;;;;;;;10.85;5.90;;;;;;;6.55;61.26;99521.25;4353514;32;33628;-82
2021/01/03 05:19:49;;;;;;;8.15;5.45;;;;;;;6.21;62.94;99510.91;4337392;32;34605;-81
2021/01/03 05:22:33;;;;;;;10.10;5.30;;;;;;;6.33;62.04;99523.66;4348820;32;33435;-81
2021/01/03 05:25:03;;;;;;;9.98;6.22;;;;;;;6.00;63.77;99522.06;4348576;32;33611;-81
2021/01/03 05:27:30;;;;;;;7.28;4.90;;;;;;;6.18;62.61;99532.00;4335280;32;32310;-81
2021/01/03 05:30:26;;;;;;;9.95;5.95;;;;;;;6.48;61.45;99517.09;4345576;32;34672;-81
2021/01/03 05:33:12;;;;;;;11.10;5.53;;;;;;;6.63;60.72;99524.47;4347802;32;33290;-81
2021/01/03 05:35:44;;;;;;;9.63;5.75;;;;;;;6.52;61.14;99528.34;4345004;32;34982;-81
2021/01/03 05:38:13;;;;;;;8.38;5.82;;;;;;;6.13;62.70;99534.75;4344788;32;33805;-80
2021/01/03 05:40:43;;;;;;;8.48;5.35;;;;;;;6.37;61.98;99541.03;4349332;32;33923;-80
2021/01/03 05:43:24;;;;;;;9.68;5.68;;;;;;;6.52;61.13;99536.22;4325145;32;33730;-80
2021/01/03 05:45:59;;;;;;;7.45;5.68;;;;;;;6.86;60.36;99536.84;4333982;32;35499;-81
2021/01/03 05:48:42;;;;;;;9.13;5.28;;;;;;;6.32;61.86;99536.84;4346778;32;33809;-81
2021/01/03 05:51:31;;;;;;;8.80;5.68;;;;;;;6.29;61.80;99537.78;4349333;32;33305;-81
2021/01/03 05:54:03;;;;;;;7.40;5.00;;;;;;;6.37;61.84;99541.03;4360942;32;32406;-81
2021/01/03 05:56:31;;;;;;;9.93;5.43;;;;;;;6.17;62.54;99546.00;4324878;32;33023;-80
2021/01/03 05:58:59;;;;;;;9.40;5.90;;;;;;;6.64;61.11;99541.06;4343662;33;33741;-82
2021/01/03 06:01:30;;;;;;;10.20;5.55;;;;;;;6.56;61.43;99548.34;4330828;32;34176;-82
2021/01/03 06:04:03;;;;;;;11.20;6.50;;;;;;;6.38;61.59;99553.22;4342180;32;34366;-82
2021/01/03 06:06:46;;;;;;;13.40;5.50;;;;;;;6.39;61.64;99552.31;4365656;32;33271;-82
2021/01/03 06:09:16;;;;;;;10.43;6.62;;;;;;;6.14;62.27;99546.09;4349185;32;34780;-82
2021/01/03 06:12:05;;;;;;;8.68;5.82;;;;;;;5.95;62.85;99544.94;4349536;32;34478;-82
2021/01/03 06:14:34;;;;;;;9.55;5.65;;;;;;;6.28;62.17;99538.69;4334113;32;110463;-81
2021/01/03 06:17:13;;;;;;;8.10;5.40;;;;;;;6.54;61.15;99529.13;4357073;32;32313;-82
2021/01/03 06:19:50;;;;;;;12.25;6.30;;;;;;;6.41;61.57;99540.03;4363450;32;34714;-83
2021/01/03 06:22:35;;;;;;;10.20;6.15;;;;;;;6.80;60.71;99531.81;4355401;32;34388;-82
2021/01/03 06:25:12;;;;;;;10.70;6.43;;;;;;;6.02;63.19;99536.81;4371145;32;34192;-81
2021/01/03 06:27:40;;;;;;;11.93;5.93;;;;;;;6.50;61.52;99538.00;4369919;32;33319;-82
2021/01/03 06:30:09;;;;;;;10.45;5.45;;;;;;;6.81;60.36;99538.75;4333277;32;34703;-82
2021/01/03 06:32:44;;;;;;;9.90;6.43;;;;;;;6.36;61.65;99547.19;4334717;32;33741;-82
2021/01/03 06:35:23;;;;;;;11.25;5.95;;;;;;;5.87;63.62;99540.72;4356860;32;34167;-82
2021/01/03 06:38:07;;;;;;;10.75;6.78;;;;;;;5.85;63.30;99544.31;4369670;32;33806;-82
2021/01/03 06:40:42;;;;;;;10.82;6.12;;;;;;;6.26;62.41;99550.97;4372886;32;33710;-82
2021/01/03 06:43:33;;;;;;;10.25;7.05;;;;;;;6.56;61.28;99561.44;4355288;32;33799;-83
2021/01/03 06:46:25;;;;;;;9.63;5.90;;;;;;;6.77;60.32;99559.91;4352280;32;34089;-82
2021/01/03 06:49:18;;;;;;;8.93;5.62;;;;;;;6.37;61.40;99567.25;4367525;32;33578;-82
2021/01/03 06:52:17;;;;;;;9.80;6.00;;;;;;;6.14;62.71;99564.47;4348418;32;33683;-81
2021/01/03 06:55:06;;;;;;;11.70;5.68;;;;;;;6.14;62.42;99577.56;4355799;32;31967;-82
2021/01/03 06:57:55;;;;;;;8.73;5.50;;;;;;;6.19;62.47;99583.53;4366098;32;32939;-82
2021/01/03 07:00:35;;;;;;;13.02;6.55;;;;;;;6.30;62.05;99578.81;4360830;32;33981;-82
2021/01/03 07:03:15;;;;;;;10.43;6.70;;;;;;;6.53;61.19;99577.28;4353887;32;31870;-82
2021/01/03 07:05:57;;;;;;;10.43;6.28;;;;;;;6.24;62.26;99571.12;4356710;32;34056;-82
2021/01/03 07:08:27;;;;;;;11.05;6.03;;;;;;;6.69;61.00;99575.88;4360505;32;33405;-82
2021/01/03 07:10:54;;;;;;;10.15;5.78;;;;;;;6.47;61.65;99577.47;4359856;32;35553;-82
2021/01/03 07:13:27;;;;;;;11.57;6.43;;;;;;;6.54;61.49;99579.84;4359055;32;33519;-82
2021/01/03 07:15:57;;;;;;;9.60;5.62;;;;;;;6.61;61.38;99577.91;4363489;32;32671;-82
2021/01/03 07:18:30;;;;;;;11.75;6.28;;;;;;;6.70;61.29;99582.00;4336224;32;34085;-82
2021/01/03 07:21:03;;;;;;;9.45;5.37;;;;;;;6.72;61.07;99583.66;4370952;32;33750;-81
2021/01/03 07:23:35;;;;;;;10.20;6.00;;;;;;;6.84;60.65;99580.66;4363487;32;33535;-82
2021/01/03 07:26:17;;;;;;;11.95;6.65;;;;;;;6.72;61.05;99580.19;4347147;32;34505;-82
2021/01/03 07:28:49;;;;;;;10.45;6.50;;;;;;;6.31;62.89;99580.53;4360988;32;34266;-82
2021/01/03 07:31:47;;;;;;;11.70;6.60;;;;;;;6.21;63.67;99589.56;4350174;32;33626;-82
2021/01/03 07:34:23;;;;;;;11.98;6.95;;;;;;;6.60;62.20;99586.69;4362700;32;33613;-82
2021/01/03 07:36:51;;;;;;;11.07;6.75;;;;;;;6.41;63.04;99596.87;4354904;32;33441;-83
2021/01/03 07:39:30;;;;;;;11.38;6.65;;;;;;;6.47;63.35;99582.72;4367544;32;32584;-83
2021/01/03 07:42:19;;;;;;;11.43;6.53;;;;;;;6.47;62.79;99591.44;4341836;33;33449;-82
2021/01/03 07:44:48;;;;;;;11.23;7.00;;;;;;;6.21;64.25;99597.44;4332089;32;32704;-83
2021/01/03 07:47:34;;;;;;;12.25;6.15;;;;;;;6.26;64.19;99598.16;4347600;32;34375;-82
2021/01/03 07:50:30;;;;;;;10.48;5.90;;;;;;;6.22;64.44;99591.31;4343160;33;34220;-84
2021/01/03 07:53:17;;;;;;;13.60;7.55;;;;;;;6.61;62.99;99585.78;4357245;32;34509;-82
2021/01/03 07:55:45;;;;;;;14.75;7.28;;;;;;;6.67;62.32;99582.94;4354488;32;34670;-82
2021/01/03 07:58:18;;;;;;;9.65;5.80;;;;;;;6.52;63.11;99599.16;4335459;32;34576;-82
2021/01/03 08:00:55;;;;;;;11.10;6.53;;;;;;;6.62;63.00;99597.97;4347132;32;33633;-82
2021/01/03 08:03:25;;;;;;;11.10;6.82;;;;;;;6.77;62.36;99594.88;4343727;32;34475;-82
2021/01/03 08:05:53;;;;;;;10.38;6.37;;;;;;;6.77;62.72;99594.00;4349700;32;33435;-84
2021/01/03 08:08:23;;;;;;;13.00;7.00;;;;;;;7.08;61.55;99588.66;4343506;32;34571;-83
2021/01/03 08:11:10;;;;;;;;;;;;;;;6.79;62.96;99586.94;4362143;32;32981;-82
2021/01/03 08:13:41;;;;;;;11.23;6.90;;;;;;;6.92;62.32;99593.53;4355362;32;33908;-83
2021/01/03 08:16:10;;;;;;;13.05;6.75;;;;;;;6.56;63.24;99580.66;4348926;32;33861;-83
2021/01/03 08:18:53;;;;;;;11.65;6.95;;;;;;;6.70;63.67;99589.87;4355536;32;36630;-84
2021/01/03 08:21:21;;;;;;;15.20;7.03;;;;;;;7.13;61.96;99598.09;4361079;32;36299;-85
2021/01/03 08:23:48;;;;;;;10.57;6.57;;;;;;;6.54;63.85;99597.34;4336248;32;34191;-84
2021/01/03 08:26:23;;;;;;;10.30;6.65;;;;;;;7.08;62.04;99600.00;4358453;32;33431;-84
2021/01/03 08:28:52;;;;;;;12.00;7.18;;;;;;;7.16;62.08;99602.38;4358842;32;31555;-83
2021/01/03 08:31:20;;;;;;;10.05;6.57;;;;;;;7.06;62.32;99611.44;4372555;32;31258;-84
2021/01/03 08:33:49;;;;;;;11.52;7.22;;;;;;;6.96;62.07;99615.28;4347020;32;34442;-83
2021/01/03 08:36:17;;;;;;;12.37;7.10;;;;;;;6.99;62.61;99605.56;4337264;32;34598;-83
2021/01/03 08:38:45;;;;;;;10.27;5.97;;;;;;;6.93;62.65;99608.34;4350803;32;34827;-83
2021/01/03 08:41:16;;;;;;;11.95;6.95;;;;;;;6.70;63.57;99614.34;4363682;32;33273;-83
2021/01/03 08:43:44;;;;;;;11.67;6.40;;;;;;;7.07;62.42;99607.91;4340841;32;33441;-83
2021/01/03 08:46:18;;;;;;;10.75;6.60;;;;;;;6.73;63.63;99611.59;4372954;32;34761;-84
2021/01/03 08:48:46;;;;;;;13.15;6.90;;;;;;;7.08;63.08;99614.91;4362924;32;33858;-84
2021/01/03 08:51:16;;;;;;;11.25;6.90;;;;;;;7.02;63.51;99623.81;4363877;32;34398;-84
2021/01/03 08:53:48;;;;;;;10.98;5.93;;;;;;;7.34;61.42;99620.13;4351188;32;33617;-83
2021/01/03 08:56:23;;;;;;;10.40;6.95;;;;;;;7.45;61.47;99622.41;4359997;32;34494;-83
2021/01/03 08:58:51;;;;;;;13.73;7.20;;;;;;;7.08;62.36;99621.00;4351698;32;34796;-83
2021/01/03 09:01:21;;;;;;;16.50;7.55;;;;;;;6.83;62.91;99620.91;4356127;32;34010;-84
2021/01/03 09:03:51;;;;;;;11.23;6.85;;;;;;;7.03;62.88;99620.31;4347369;32;33170;-82
2021/01/03 09:06:19;;;;;;;11.15;6.03;;;;;;;6.91;63.73;99624.16;4361679;32;34532;-83
2021/01/03 09:08:46;;;;;;;14.45;7.68;;;;;;;7.11;62.18;99620.03;4359436;32;32443;-83
2021/01/03 09:11:19;;;;;;;13.23;7.25;;;;;;;7.18;62.61;99622.44;4358109;32;32918;-83
2021/01/03 09:13:52;;;;;;;13.27;7.97;;;;;;;6.70;64.56;99627.47;4360671;32;35418;-83
2021/01/03 09:16:30;;;;;;;15.95;7.70;;;;;;;7.13;64.27;99624.34;4346393;32;33234;-83
2021/01/03 09:19:29;;;;;;;11.98;7.70;;;;;;;6.85;64.49;99621.75;4358233;32;33335;-83
2021/01/03 09:21:58;;;;;;;12.50;8.68;;;;;;;6.94;64.55;99617.97;4342661;32;34784;-83
2021/01/03 09:24:29;;;;;;;16.33;7.97;;;;;;;6.70;64.64;99624.00;4346182;32;32916;-83
2021/01/03 09:26:58;;;;;;;13.60;8.15;;;;;;;7.00;64.13;99616.91;4376919;32;32836;-83
2021/01/03 09:29:38;;;;;;;12.60;7.37;;;;;;;7.32;63.59;99616.72;4361193;32;33700;-83
2021/01/03 09:32:35;;;;;;;17.37;7.62;;;;;;;7.57;62.92;99603.59;4361702;32;33127;-83
2021/01/03 09:35:40;;;;;;;14.63;8.30;;;;;;;7.27;63.58;99600.25;4320294;33;33238;-83
2021/01/03 09:38:29;;;;;;;15.98;8.60;;;;;;;7.36;64.11;99610.47;4306770;33;34959;-83
2021/01/03 09:40:59;;;;;;;15.07;7.78;;;;;;;7.49;62.99;99612.66;4316102;33;34635;-83
2021/01/03 09:43:38;;;;;;;12.27;7.57;;;;;;;7.69;62.38;99602.31;4304939;33;34010;-83
2021/01/03 09:46:17;;;;;;;16.67;8.57;;;;;;;7.77;62.54;99604.69;4307838;33;33166;-83
2021/01/03 09:48:46;;;;;;;13.45;8.35;;;;;;;7.63;63.05;99602.53;4303878;33;32740;-83
2021/01/03 09:51:22;;;;;;;21.77;10.93;;;;;;;7.93;62.80;99608.50;4304285;33;33584;-83
2021/01/03 09:54:01;;;;;;;18.00;8.00;;;;;;;7.77;63.17;99605.53;4315599;33;32644;-83
2021/01/03 09:56:34;;;;;;;12.68;8.07;;;;;;;8.19;61.70;99597.00;4309741;33;35758;-83
2021/01/03 09:59:27;;;;;;;12.80;7.80;;;;;;;8.11;61.58;99594.66;4303961;33;34811;-83
2021/01/03 10:02:14;;;;;;;19.23;8.60;;;;;;;8.24;61.54;99595.06;4297665;33;33801;-83
2021/01/03 10:04:44;;;;;;;16.52;8.60;;;;;;;8.10;62.48;99602.59;4310153;33;34220;-83
2021/01/03 10:07:19;;;;;;;11.35;7.62;;;;;;;7.95;63.02;99599.63;4315987;33;33218;-83
2021/01/03 10:10:09;;;;;;;14.48;8.27;;;;;;;8.20;61.99;99590.81;4309982;33;33169;-84
2021/01/03 10:12:39;;;;;;;12.57;7.82;;;;;;;8.56;61.25;99593.03;4335547;32;34575;-83
2021/01/03 10:15:22;;;;;;;13.93;9.05;;;;;;;8.15;62.94;99592.78;4352053;32;32420;-83
2021/01/03 10:17:56;;;;;;;16.20;8.90;;;;;;;8.59;62.05;99591.13;4369961;32;34713;-84
2021/01/03 10:20:33;;;;;;;17.35;9.27;;;;;;;8.30;63.48;99594.81;4352125;32;33705;-84
2021/01/03 10:23:01;;;;;;;13.52;8.77;;;;;;;8.80;61.88;99594.69;4369955;32;32413;-84
2021/01/03 10:25:28;;;;;;;15.15;8.98;;;;;;;8.52;62.18;99580.91;4361868;32;33865;-84
2021/01/03 10:28:01;;;;;;;12.93;8.60;;;;;;;8.60;62.71;99582.31;4369038;32;33420;-84
2021/01/03 10:30:29;;;;;;;17.62;9.35;;;;;;;8.09;65.44;99590.37;4350309;32;33767;-83
2021/01/03 10:32:56;;;;;;;16.20;9.50;;;;;;;8.27;64.47;99583.59;4360836;32;33639;-84
2021/01/03 10:35:24;;;;;;;13.57;8.73;;;;;;;8.66;63.33;99575.94;4363468;32;34403;-84
2021/01/03 10:37:51;;;;;;;20.95;10.98;;;;;;;8.56;63.62;99571.97;4350182;32;33384;-83
2021/01/03 10:40:19;;;;;;;14.18;8.82;;;;;;;8.81;63.42;99572.69;4356630;32;34090;-84
2021/01/03 10:42:48;;;;;;;14.30;8.75;;;;;;;9.25;61.71;99577.91;4360184;32;33369;-84
2021/01/03 10:45:19;;;;;;;13.45;9.00;;;;;;;9.05;61.90;99573.47;4362475;32;34075;-83
2021/01/03 10:47:46;;;;;;;16.87;8.73;;;;;;;9.06;61.85;99569.06;4353066;32;33539;-84
2021/01/03 10:50:15;;;;;;;15.30;8.75;;;;;;;8.80;62.38;99568.34;4363330;32;33515;-84
2021/01/03 10:52:44;;;;;;;17.60;8.85;;;;;;;9.07;62.42;99558.50;4357337;32;33597;-83
2021/01/03 10:55:12;;;;;;;13.25;7.97;;;;;;;8.85;62.00;99547.97;4352385;32;33800;-84
2021/01/03 10:57:40;;;;;;;17.00;9.05;;;;;;;8.86;61.93;99549.69;4349423;32;33307;-84
2021/01/03 11:00:10;;;;;;;17.55;9.50;;;;;;;8.88;61.35;99561.03;4354730;32;33494;-84
2021/01/03 11:02:37;;;;;;;15.90;9.18;;;;;;;8.77;62.37;99557.94;4353195;32;33605;-86
2021/01/03 11:05:06;;;;;;;15.05;9.05;;;;;;;8.69;62.06;99570.56;4364243;32;33092;-85
2021/01/03 11:07:34;;;;;;;15.55;8.80;;;;;;;8.51;62.84;99560.78;4347375;32;33595;-87
2021/01/03 11:10:04;;;;;;;17.48;9.50;;;;;;;8.95;61.73;99557.19;4358244;32;33803;-86
2021/01/03 11:12:31;;;;;;;17.12;10.10;;;;;;;8.47;63.10;99557.38;4354453;32;35704;-85
2021/01/03 11:14:59;;;;;;;17.42;9.50;;;;;;;8.65;63.07;99558.44;4339360;32;34342;-87
2021/01/03 11:17:28;;;;;;;16.20;9.70;;;;;;;8.36;63.95;99541.16;4350849;32;32853;-88
2021/01/03 11:19:56;;;;;;;17.23;9.98;;;;;;;8.51;63.67;99545.84;4369386;32;33874;-83
2021/01/03 11:22:24;;;;;;;14.87;9.15;;;;;;;8.08;65.49;99546.59;4355462;32;34810;-83
2021/01/03 11:24:51;;;;;;;16.40;9.38;;;;;;;8.19;64.98;99545.25;4347774;32;35127;-84
2021/01/03 11:27:20;;;;;;;16.10;10.00;;;;;;;8.41;64.61;99532.19;4349707;32;34055;-84
2021/01/03 11:29:51;;;;;;;16.92;9.82;;;;;;;8.85;63.32;99542.69;4336932;32;35236;-86
2021/01/03 11:32:24;;;;;;;22.55;11.85;;;;;;;8.61;63.98;99541.06;4361256;32;33921;-88
2021/01/03 11:34:53;;;;;;;19.50;9.65;;;;;;;8.75;64.06;99533.47;4349159;32;32969;-85
2021/01/03 11:37:25;;;;;;;17.12;9.20;;;;;;;9.20;62.69;99535.09;4353675;32;33730;-85
2021/01/03 11:39:54;;;;;;;14.57;9.85;;;;;;;8.82;63.86;99540.19;4362065;32;34801;-86
2021/01/03 11:42:38;;;;;;;15.32;9.27;;;;;;;8.57;64.58;99535.06;4363634;32;33506;-86
2021/01/03 11:45:13;;;;;;;18.95;9.68;;;;;;;8.72;63.72;99538.84;4354399;32;34477;-86
2021/01/03 11:47:40;;;;;;;23.52;11.25;;;;;;;8.76;63.73;99534.31;4350964;32;34378;-85
2021/01/03 11:50:12;;;;;;;13.75;8.95;;;;;;;8.78;64.26;99535.09;4360450;32;32905;-85
2021/01/03 11:52:40;;;;;;;16.30;9.90;;;;;;;8.87;64.36;99534.72;4361698;32;34226;-86
2021/01/03 11:55:09;;;;;;;14.70;10.00;;;;;;;8.95;63.86;99541.41;4364964;32;33110;-86
2021/01/03 11:57:37;;;;;;;19.90;10.48;;;;;;;8.79;64.31;99535.06;4351705;32;33325;-86
2021/01/03 12:00:10;;;;;;;19.90;10.35;;;;;;;9.23;63.28;99527.09;4354663;32;33624;-86
2021/01/03 12:02:40;;;;;;;20.08;10.40;;;;;;;8.83;63.76;99530.50;4351429;32;34598;-85
2021/01/03 12:05:09;;;;;;;15.23;9.40;;;;;;;9.05;63.66;99525.22;4337245;32;34004;-85